createdAt,value
2024-05-09T00:03:30.737Z,9.32
2024-05-09T00:08:32.870Z,9.30
2024-05-09T00:13:35.775Z,9.25
2024-05-09T00:18:40.730Z,9.13
2024-05-09T00:23:43.365Z,9.06
2024-05-09T00:28:45.278Z,9.02
2024-05-09T00:33:47.922Z,9.01
2024-05-09T00:38:50.215Z,8.95
2024-05-09T00:43:55.740Z,8.87
2024-05-09T00:49:01.165Z,8.81
2024-05-09T00:54:04.899Z,8.76
2024-05-09T00:59:10.700Z,8.72
2024-05-09T01:04:13.607Z,8.65
2024-05-09T01:09:15.876Z,8.58
2024-05-09T01:14:18.533Z,8.51
2024-05-09T01:19:39.752Z,8.48
2024-05-09T01:25:16.308Z,8.36
2024-05-09T01:30:34.313Z,8.24
2024-05-09T01:35:40.252Z,8.10
2024-05-09T01:41:05.710Z,7.92
2024-05-09T01:46:31.208Z,7.78
2024-05-09T01:51:39.402Z,7.78
2024-05-09T01:56:52.335Z,7.73
2024-05-09T02:01:57.958Z,7.62
2024-05-09T02:07:00.265Z,7.49
2024-05-09T02:12:03.591Z,7.47
2024-05-09T02:17:29.011Z,7.44
2024-05-09T02:22:40.013Z,7.48
2024-05-09T02:27:44.878Z,7.51
2024-05-09T02:32:47.482Z,7.62
2024-05-09T02:37:58.542Z,7.67
2024-05-09T02:43:20.866Z,7.67
2024-05-09T02:48:23.521Z,7.63
2024-05-09T02:53:48.914Z,7.57
2024-05-09T02:59:02.951Z,7.52
2024-05-09T03:04:22.787Z,7.50
2024-05-09T03:09:25.102Z,7.48
2024-05-09T03:14:28.288Z,7.44
2024-05-09T03:19:30.426Z,7.43
2024-05-09T03:24:35.772Z,7.44
2024-05-09T03:29:39.005Z,7.43
2024-05-09T03:35:04.000Z,7.34
2024-05-09T03:40:20.274Z,7.26
2024-05-09T03:45:49.872Z,7.19
2024-05-09T03:50:57.410Z,7.14
2024-05-09T03:56:03.427Z,7.15
2024-05-09T04:01:06.392Z,7.17
2024-05-09T04:06:08.511Z,7.20
2024-05-09T04:11:14.185Z,7.26
2024-05-09T04:16:20.180Z,7.26
2024-05-09T04:21:47.593Z,7.29
2024-05-09T04:26:58.448Z,7.33
2024-05-09T04:32:20.310Z,7.36
2024-05-09T04:37:46.084Z,7.44
2024-05-09T04:42:57.366Z,7.55
2024-05-09T04:48:11.604Z,7.66
2024-05-09T04:53:57.252Z,7.71
2024-05-09T04:59:35.762Z,7.70
2024-05-09T05:05:08.685Z,7.70
2024-05-09T05:10:15.048Z,7.75
2024-05-09T05:15:57.413Z,7.80
2024-05-09T05:21:24.125Z,7.86
2024-05-09T05:26:56.270Z,7.96
2024-05-09T05:32:19.996Z,8.14
2024-05-09T05:37:28.015Z,8.30
2024-05-09T05:42:31.467Z,8.62
2024-05-09T05:47:42.235Z,9.10
2024-05-09T05:52:50.420Z,9.51
2024-05-09T05:58:01.529Z,9.98
2024-05-09T06:03:05.071Z,10.67
2024-05-09T06:08:08.051Z,11.31
2024-05-09T06:14:13.191Z,11.83
2024-05-09T06:20:35.241Z,12.16
2024-05-09T06:26:36.286Z,12.74
2024-05-09T06:32:51.583Z,13.27
2024-05-09T06:37:55.470Z,13.46
2024-05-09T06:42:58.740Z,14.31
2024-05-09T06:48:01.162Z,14.58
2024-05-09T06:53:06.278Z,14.65
2024-05-09T06:58:08.870Z,14.55
2024-05-09T07:03:14.711Z,14.63
2024-05-09T07:08:46.956Z,14.37
2024-05-09T07:13:50.672Z,14.33
2024-05-09T07:18:58.404Z,14.52
2024-05-09T07:24:15.674Z,14.51
2024-05-09T07:29:18.722Z,14.57
2024-05-09T07:34:21.942Z,14.76
2024-05-09T07:39:24.930Z,15.11
2024-05-09T07:44:39.043Z,15.38
2024-05-09T07:51:32.270Z,15.36
2024-05-09T07:55:07.549Z,15.61
2024-05-09T08:00:11.926Z,15.71
2024-05-09T08:05:17.377Z,15.84
2024-05-09T08:10:24.530Z,15.77
2024-05-09T08:15:32.916Z,15.84
2024-05-09T08:20:39.296Z,16.04
2024-05-09T08:25:47.600Z,16.50
2024-05-09T08:30:54.144Z,16.43
2024-05-09T08:35:59.472Z,16.10
2024-05-09T08:41:03.695Z,15.97
2024-05-09T08:46:06.924Z,16.35
2024-05-09T08:51:09.190Z,16.79
2024-05-09T08:56:37.907Z,16.81
2024-05-09T09:01:42.833Z,16.81
2024-05-09T09:07:06.673Z,16.76
2024-05-09T09:12:21.220Z,16.86
2024-05-09T09:17:23.684Z,17.11
2024-05-09T09:22:35.750Z,17.09
2024-05-09T09:27:43.362Z,17.37
2024-05-09T09:32:51.679Z,17.68
2024-05-09T09:38:02.132Z,17.81
2024-05-09T09:43:35.484Z,17.80
2024-05-09T09:48:59.416Z,17.46
2024-05-09T09:54:07.010Z,16.74
2024-05-09T09:59:27.825Z,16.36
2024-05-09T10:04:31.156Z,16.77
2024-05-09T10:09:34.566Z,17.15
2024-05-09T10:15:07.137Z,17.35
2024-05-09T10:20:21.984Z,16.63
2024-05-09T10:25:36.804Z,17.03
2024-05-09T10:30:43.315Z,17.86
2024-05-09T10:35:55.191Z,18.06
2024-05-09T10:41:03.034Z,17.75
2024-05-09T10:46:28.345Z,18.03
2024-05-09T10:51:55.468Z,18.56
2024-05-09T10:56:59.584Z,18.88
2024-05-09T11:02:11.783Z,18.49
2024-05-09T11:07:20.921Z,18.04
2024-05-09T11:12:45.346Z,18.51
2024-05-09T11:17:47.797Z,19.07
2024-05-09T11:22:55.927Z,19.17
2024-05-09T11:28:02.421Z,19.56
2024-05-09T11:33:05.240Z,19.93
2024-05-09T11:38:07.324Z,20.10
2024-05-09T11:43:12.313Z,20.19
2024-05-09T11:48:15.825Z,20.00
2024-05-09T11:53:18.486Z,19.92
2024-05-09T11:58:29.362Z,19.68
2024-05-09T12:03:32.751Z,19.78
2024-05-09T12:08:36.477Z,20.07
2024-05-09T12:13:43.130Z,20.60
2024-05-09T12:18:47.981Z,20.61
2024-05-09T12:23:50.508Z,20.24
2024-05-09T12:28:53.245Z,20.72
2024-05-09T12:33:59.847Z,20.66
2024-05-09T12:39:05.492Z,20.27
2024-05-09T12:44:10.986Z,19.96
2024-05-09T12:49:20.121Z,19.79
2024-05-09T12:54:41.460Z,19.38
2024-05-09T12:59:44.321Z,19.34
2024-05-09T13:04:49.104Z,19.76
2024-05-09T13:09:51.413Z,20.01
2024-05-09T13:14:53.804Z,20.18
2024-05-09T13:19:59.100Z,19.99
2024-05-09T13:25:01.566Z,19.76
2024-05-09T13:30:06.326Z,19.16
2024-05-09T13:35:10.427Z,18.32
2024-05-09T13:40:14.457Z,17.84
2024-05-09T13:45:17.777Z,17.96
2024-05-09T13:50:30.482Z,18.84
2024-05-09T13:55:38.136Z,18.87
2024-05-09T14:00:58.730Z,19.21
2024-05-09T14:06:01.902Z,19.41
2024-05-09T14:11:24.853Z,19.14
2024-05-09T14:16:29.438Z,18.99
2024-05-09T14:21:31.817Z,19.02
2024-05-09T14:26:37.442Z,19.08
2024-05-09T14:31:40.199Z,19.02
2024-05-09T14:36:43.776Z,19.09
2024-05-09T14:41:46.683Z,18.80
2024-05-09T14:46:49.495Z,18.55
2024-05-09T14:51:51.907Z,18.28
2024-05-09T14:56:54.655Z,18.35
2024-05-09T15:01:57.744Z,18.48
2024-05-09T15:07:01.904Z,18.53
2024-05-09T15:12:09.104Z,18.57
2024-05-09T15:17:12.676Z,18.59
2024-05-09T15:22:21.294Z,18.49
2024-05-09T15:27:24.886Z,18.32
2024-05-09T15:32:44.403Z,18.19
2024-05-09T15:37:48.363Z,17.96
2024-05-09T15:42:51.530Z,17.97
2024-05-09T15:47:56.859Z,17.94
2024-05-09T15:53:09.102Z,17.92
2024-05-09T15:58:22.588Z,17.83
2024-05-09T16:03:32.302Z,17.71
2024-05-09T16:08:36.542Z,17.70
2024-05-09T16:13:39.114Z,17.72
2024-05-09T16:18:44.560Z,17.82
2024-05-09T16:23:49.165Z,17.85
2024-05-09T16:28:54.178Z,17.78
2024-05-09T16:33:59.899Z,17.75
2024-05-09T16:39:03.797Z,17.77
2024-05-09T16:44:18.526Z,17.68
2024-05-09T16:49:24.078Z,17.56
2024-05-09T16:54:30.061Z,17.48
2024-05-09T16:59:32.412Z,17.43
2024-05-09T17:04:45.093Z,17.42
2024-05-09T17:09:48.279Z,17.36
2024-05-09T17:14:50.838Z,17.29
2024-05-09T17:19:53.161Z,17.23
2024-05-09T17:25:37.953Z,17.17
2024-05-09T17:31:06.894Z,17.07
2024-05-09T17:36:12.735Z,16.96
2024-05-09T17:41:15.014Z,16.84
2024-05-09T17:46:20.897Z,16.71
2024-05-09T17:51:35.308Z,16.55
2024-05-09T17:56:37.777Z,16.37
2024-05-09T18:01:44.657Z,16.24
2024-05-09T18:06:51.217Z,16.10
2024-05-09T18:11:57.219Z,16.01
2024-05-09T18:17:00.827Z,15.89
2024-05-09T18:22:07.570Z,15.83
2024-05-09T18:27:11.563Z,15.72
2024-05-09T18:32:17.747Z,15.61
2024-05-09T18:37:21.107Z,15.53
2024-05-09T18:42:24.166Z,15.31
2024-05-09T18:47:28.223Z,14.80
2024-05-09T18:52:41.275Z,14.20
2024-05-09T18:57:53.897Z,13.91
2024-05-09T19:02:58.274Z,14.25
2024-05-09T19:08:05.907Z,14.39
2024-05-09T19:13:15.021Z,14.46
2024-05-09T19:18:18.618Z,14.49
2024-05-09T19:23:22.213Z,14.46
2024-05-09T19:28:25.746Z,14.34
2024-05-09T19:33:32.262Z,14.22
2024-05-09T19:38:39.737Z,14.10
2024-05-09T19:43:43.348Z,14.05
2024-05-09T19:48:46.777Z,14.07
2024-05-09T19:53:50.267Z,13.87
2024-05-09T19:59:04.805Z,13.63
2024-05-09T20:04:07.502Z,13.56
2024-05-09T20:09:24.934Z,13.60
2024-05-09T20:14:28.547Z,13.55
2024-05-09T20:19:30.776Z,13.49
2024-05-09T20:24:38.871Z,13.39
2024-05-09T20:29:41.391Z,13.29
2024-05-09T20:34:49.751Z,13.13
2024-05-09T20:39:51.885Z,12.98
2024-05-09T20:44:54.782Z,12.84
2024-05-09T20:50:02.181Z,12.75
2024-05-09T20:55:13.685Z,12.69
2024-05-09T21:00:25.936Z,12.63
2024-05-09T21:05:37.077Z,12.56
2024-05-09T21:10:48.598Z,12.52
2024-05-09T21:15:51.923Z,12.50
2024-05-09T21:20:54.480Z,12.47
2024-05-09T21:25:56.747Z,12.46
2024-05-09T21:30:59.798Z,12.44
2024-05-09T21:36:02.787Z,12.45
2024-05-09T21:41:07.343Z,12.46
2024-05-09T21:46:09.937Z,12.44
2024-05-09T21:51:26.842Z,12.36
2024-05-09T21:56:29.394Z,12.29
2024-05-09T22:01:33.696Z,12.26
2024-05-09T22:06:44.595Z,12.19
2024-05-09T22:11:54.437Z,12.15
2024-05-09T22:16:56.832Z,12.12
2024-05-09T22:22:11.223Z,12.09
2024-05-09T22:27:21.973Z,12.02
2024-05-09T22:32:33.705Z,11.99
2024-05-09T22:37:50.556Z,11.94
2024-05-09T22:42:58.364Z,11.88
2024-05-09T22:48:01.204Z,11.81
2024-05-09T22:53:07.860Z,11.77
2024-05-09T22:58:18.745Z,11.82
2024-05-09T23:03:25.821Z,11.96
2024-05-09T23:08:29.742Z,12.02
2024-05-09T23:13:33.580Z,11.98
2024-05-09T23:18:39.907Z,11.89
2024-05-09T23:23:48.754Z,11.75
2024-05-09T23:28:51.458Z,11.64
2024-05-09T23:34:14.432Z,11.62
2024-05-09T23:39:21.957Z,11.64
2024-05-09T23:44:27.627Z,11.62
2024-05-09T23:49:29.979Z,11.52
2024-05-09T23:54:34.797Z,11.49
2024-05-09T23:59:36.845Z,11.60
